createdAt,value
2022-09-04T00:00:10.613Z,99.90
2022-09-04T00:03:10.815Z,99.90
2022-09-04T00:05:45.659Z,99.90
2022-09-04T00:08:33.478Z,99.90
2022-09-04T00:11:33.162Z,99.90
2022-09-04T00:14:03.549Z,99.90
2022-09-04T00:16:46.327Z,99.90
2022-09-04T00:19:34.773Z,99.90
2022-09-04T00:22:20.300Z,99.90
2022-09-04T00:25:02.441Z,99.90
2022-09-04T00:27:43.391Z,99.90
2022-09-04T00:30:22.543Z,99.90
2022-09-04T00:33:15.995Z,99.90
2022-09-04T00:35:49.890Z,99.90
2022-09-04T00:38:40.161Z,99.90
2022-09-04T00:41:16.574Z,99.90
2022-09-04T00:44:19.254Z,99.90
2022-09-04T00:47:09.322Z,99.90
2022-09-04T00:50:29.047Z,99.90
2022-09-04T00:53:12.349Z,99.90
2022-09-04T00:55:39.547Z,99.90
2022-09-04T00:58:27.878Z,99.90
2022-09-04T01:00:58.243Z,99.90
2022-09-04T01:03:59.278Z,99.90
2022-09-04T01:06:48.379Z,99.90
2022-09-04T01:09:33.684Z,99.90
2022-09-04T01:12:12.534Z,99.90
2022-09-04T01:14:42.455Z,99.90
2022-09-04T01:17:25.843Z,99.90
2022-09-04T01:20:20.237Z,99.90
2022-09-04T01:23:14.162Z,99.90
2022-09-04T01:26:27.984Z,99.90
2022-09-04T01:29:15.824Z,99.90
2022-09-04T01:32:01.859Z,99.90
2022-09-04T01:35:04.568Z,99.90
2022-09-04T01:37:49.564Z,99.90
2022-09-04T01:40:48.316Z,99.90
2022-09-04T01:43:18.645Z,99.90
2022-09-04T01:46:08.022Z,99.90
2022-09-04T01:48:41.315Z,99.90
2022-09-04T01:51:20.316Z,99.90
2022-09-04T01:54:10.464Z,99.90
2022-09-04T01:57:14.742Z,99.90
2022-09-04T02:00:02.215Z,99.90
2022-09-04T02:02:44.145Z,99.90
2022-09-04T02:05:13.155Z,99.90
2022-09-04T02:08:02.373Z,99.90
2022-09-04T02:10:39.024Z,99.90
2022-09-04T02:13:26.207Z,99.90
2022-09-04T02:16:06.626Z,99.90
2022-09-04T02:18:49.248Z,99.90
2022-09-04T02:21:44.800Z,99.90
2022-09-04T02:24:37.553Z,99.90
2022-09-04T02:27:14.830Z,99.90
2022-09-04T02:30:08.130Z,99.90
2022-09-04T02:32:47.923Z,99.90
2022-09-04T02:35:35.237Z,99.90
2022-09-04T02:38:12.927Z,99.90
2022-09-04T02:41:01.665Z,99.90
2022-09-04T02:44:04.367Z,99.90
2022-09-04T02:46:53.113Z,99.90
2022-09-04T02:49:29.846Z,99.90
2022-09-04T02:52:09.235Z,99.90
2022-09-04T02:55:17.897Z,99.90
2022-09-04T02:57:54.956Z,99.90
2022-09-04T03:00:54.318Z,99.90
2022-09-04T03:03:31.298Z,99.90
2022-09-04T03:06:15.756Z,99.90
2022-09-04T03:08:57.021Z,99.90
2022-09-04T03:11:34.896Z,99.90
2022-09-04T03:14:10.310Z,99.90
2022-09-04T03:16:47.800Z,99.90
2022-09-04T03:19:40.282Z,99.90
2022-09-04T03:22:12.930Z,99.90
2022-09-04T03:25:03.970Z,99.90
2022-09-04T03:27:33.209Z,99.90
2022-09-04T03:30:07.900Z,99.90
2022-09-04T03:33:07.462Z,99.90
2022-09-04T03:35:53.557Z,99.90
2022-09-04T03:39:02.371Z,99.90
2022-09-04T03:41:34.720Z,99.90
2022-09-04T03:44:36.635Z,99.90
2022-09-04T03:47:23.757Z,99.90
2022-09-04T03:50:18.393Z,99.90
2022-09-04T03:52:55.827Z,99.90
2022-09-04T03:55:42.452Z,99.90
2022-09-04T03:58:21.909Z,99.90
2022-09-04T04:01:05.837Z,99.90
2022-09-04T04:03:59.839Z,99.90
2022-09-04T04:06:58.263Z,99.90
2022-09-04T04:09:48.214Z,99.90
2022-09-04T04:12:45.254Z,99.90
2022-09-04T04:15:45.197Z,99.90
2022-09-04T04:18:35.782Z,99.90
2022-09-04T04:21:21.138Z,99.90
2022-09-04T04:24:18.074Z,99.90
2022-09-04T04:26:54.921Z,99.90
2022-09-04T04:29:45.088Z,99.90
2022-09-04T04:32:24.253Z,99.90
2022-09-04T04:35:04.182Z,99.90
2022-09-04T04:37:51.824Z,99.90
2022-09-04T04:40:30.172Z,99.90
2022-09-04T04:43:28.166Z,99.90
2022-09-04T04:46:07.448Z,99.90
2022-09-04T04:49:04.316Z,99.90
2022-09-04T04:51:50.984Z,99.90
2022-09-04T04:54:39.911Z,99.90
2022-09-04T04:57:38.442Z,99.90
2022-09-04T05:00:25.311Z,99.90
2022-09-04T05:03:24.823Z,99.90
2022-09-04T05:05:55.893Z,99.90
2022-09-04T05:09:01.117Z,99.90
2022-09-04T05:11:43.233Z,99.90
2022-09-04T05:14:47.600Z,99.90
2022-09-04T05:17:57.631Z,99.90
2022-09-04T05:20:28.038Z,99.90
2022-09-04T05:23:15.074Z,99.90
2022-09-04T05:25:59.670Z,99.90
2022-09-04T05:29:02.391Z,99.90
2022-09-04T05:31:57.729Z,99.90
2022-09-04T05:34:40.354Z,99.90
2022-09-04T05:37:17.078Z,99.90
2022-09-04T05:39:56.653Z,99.90
2022-09-04T05:42:48.994Z,99.90
2022-09-04T05:45:50.114Z,99.90
2022-09-04T05:48:26.640Z,99.90
2022-09-04T05:51:34.865Z,99.90
2022-09-04T05:54:21.923Z,99.90
2022-09-04T05:57:21.041Z,99.90
2022-09-04T06:00:01.095Z,99.90
2022-09-04T06:02:56.727Z,99.90
2022-09-04T06:05:28.569Z,99.90
2022-09-04T06:08:28.347Z,99.90
2022-09-04T06:11:02.295Z,99.90
2022-09-04T06:13:38.520Z,99.90
2022-09-04T06:16:32.859Z,99.90
2022-09-04T06:19:06.050Z,99.90
2022-09-04T06:21:51.866Z,99.90
2022-09-04T06:24:32.078Z,99.90
2022-09-04T06:27:27.121Z,99.90
2022-09-04T06:30:05.290Z,99.90
2022-09-04T06:32:53.480Z,99.90
2022-09-04T06:35:52.790Z,99.90
2022-09-04T06:38:29.256Z,99.90
2022-09-04T06:41:02.621Z,99.90
2022-09-04T06:43:40.565Z,99.90
2022-09-04T06:46:20.729Z,99.90
2022-09-04T06:49:19.050Z,99.90
2022-09-04T06:51:46.253Z,99.90
2022-09-04T06:55:07.753Z,99.90
2022-09-04T06:57:35.336Z,99.90
2022-09-04T07:00:14.476Z,99.90
2022-09-04T07:03:08.189Z,99.90
2022-09-04T07:05:43.454Z,99.90
2022-09-04T07:08:16.943Z,99.90
2022-09-04T07:10:58.635Z,99.90
2022-09-04T07:14:00.717Z,99.90
2022-09-04T07:16:51.311Z,99.90
2022-09-04T07:19:29.381Z,99.90
2022-09-04T07:22:23.959Z,99.90
2022-09-04T07:25:09.793Z,99.90
2022-09-04T07:28:01.780Z,99.90
2022-09-04T07:30:38.269Z,99.90
2022-09-04T07:33:36.607Z,99.90
2022-09-04T07:36:22.952Z,99.90
2022-09-04T07:39:10.859Z,99.90
2022-09-04T07:41:48.903Z,99.90
2022-09-04T07:44:43.765Z,99.90
2022-09-04T07:47:42.307Z,99.90
2022-09-04T07:50:15.893Z,99.90
2022-09-04T07:53:11.144Z,99.90
2022-09-04T07:55:46.788Z,99.90
2022-09-04T07:58:44.843Z,99.90
2022-09-04T08:01:17.883Z,99.90
2022-09-04T08:04:22.740Z,99.90
2022-09-04T08:07:00.249Z,99.90
2022-09-04T08:09:36.747Z,99.90
2022-09-04T08:12:32.015Z,99.90
2022-09-04T08:15:22.152Z,99.90
2022-09-04T08:18:08.135Z,99.90
2022-09-04T08:21:07.564Z,99.90
2022-09-04T08:23:46.962Z,99.90
2022-09-04T08:26:34.667Z,99.90
2022-09-04T08:29:37.296Z,99.90
2022-09-04T08:32:46.251Z,99.90
2022-09-04T08:35:26.947Z,99.90
2022-09-04T08:38:14.494Z,99.90
2022-09-04T08:41:09.658Z,99.90
2022-09-04T08:44:22.566Z,99.90
2022-09-04T08:47:19.311Z,99.90
2022-09-04T08:49:59.926Z,99.90
2022-09-04T08:52:36.466Z,99.90
2022-09-04T08:55:19.062Z,99.90
2022-09-04T08:58:24.543Z,99.90
2022-09-04T09:01:10.569Z,99.90
2022-09-04T09:03:52.611Z,99.90
2022-09-04T09:06:51.205Z,99.90
2022-09-04T09:09:45.679Z,99.90
2022-09-04T09:12:25.143Z,99.90
2022-09-04T09:15:32.850Z,99.90
2022-09-04T09:18:48.909Z,99.90
2022-09-04T09:21:34.314Z,99.90
2022-09-04T09:24:01.527Z,99.90
2022-09-04T09:26:33.455Z,99.90
2022-09-04T09:29:20.095Z,99.90
2022-09-04T09:32:07.137Z,99.90
2022-09-04T09:35:09.133Z,99.90
2022-09-04T09:38:04.515Z,99.90
2022-09-04T09:41:06.388Z,99.90
2022-09-04T09:44:03.645Z,99.90
2022-09-04T09:46:54.932Z,99.90
2022-09-04T09:49:22.227Z,99.90
2022-09-04T09:52:34.679Z,99.90
2022-09-04T09:55:28.253Z,99.90
2022-09-04T09:58:16.042Z,99.90
2022-09-04T10:01:20.401Z,99.90
2022-09-04T10:03:55.084Z,99.90
2022-09-04T10:06:49.472Z,99.90
2022-09-04T10:09:41.653Z,99.90
2022-09-04T10:12:36.814Z,99.90
2022-09-04T10:15:34.998Z,99.90
2022-09-04T10:18:24.274Z,99.90
2022-09-04T10:21:29.469Z,99.90
2022-09-04T10:24:34.103Z,99.90
2022-09-04T10:27:28.926Z,99.90
2022-09-04T10:30:12.068Z,99.90
2022-09-04T10:33:11.812Z,99.90
2022-09-04T10:36:00.352Z,99.90
2022-09-04T10:39:03.488Z,99.90
2022-09-04T10:42:01.208Z,99.90
2022-09-04T10:45:14.128Z,99.90
2022-09-04T10:48:14.972Z,99.90
2022-09-04T10:51:20.941Z,99.90
2022-09-04T10:54:17.973Z,99.90
2022-09-04T10:57:08.258Z,99.90
2022-09-04T10:59:49.814Z,99.90
2022-09-04T11:02:24.853Z,99.90
2022-09-04T11:05:27.725Z,99.90
2022-09-04T11:08:22.954Z,99.90
2022-09-04T11:10:56.319Z,99.90
2022-09-04T11:13:23.607Z,99.90
2022-09-04T11:15:50.970Z,99.90
2022-09-04T11:18:24.285Z,99.90
2022-09-04T11:21:31.088Z,99.60
2022-09-04T11:24:10.376Z,99.10
2022-09-04T11:27:09.979Z,98.80
2022-09-04T11:30:12.075Z,98.40
2022-09-04T11:33:07.500Z,97.80
2022-09-04T11:36:12.891Z,97.70
2022-09-04T11:38:49.858Z,97.20
2022-09-04T11:41:44.420Z,97.10
2022-09-04T11:44:15.061Z,96.90
2022-09-04T11:47:20.980Z,96.40
2022-09-04T11:50:06.998Z,96.20
2022-09-04T11:53:12.775Z,95.80
2022-09-04T11:55:58.103Z,95.40
2022-09-04T11:59:04.022Z,95.10
2022-09-04T12:01:31.311Z,94.70
2022-09-04T12:04:23.033Z,94.00
2022-09-04T12:07:18.363Z,93.70
2022-09-04T12:10:16.643Z,92.80
2022-09-04T12:13:14.789Z,92.30
2022-09-04T12:16:17.068Z,92.10
2022-09-04T12:18:57.272Z,91.90
2022-09-04T12:21:48.814Z,91.90
2022-09-04T12:24:22.075Z,91.60
2022-09-04T12:27:04.432Z,91.30
2022-09-04T12:29:50.394Z,90.80
2022-09-04T12:32:59.076Z,90.60
2022-09-04T12:35:48.940Z,90.50
2022-09-04T12:38:28.251Z,90.40
2022-09-04T12:41:28.269Z,90.20
2022-09-04T12:44:11.674Z,90.20
2022-09-04T12:47:04.579Z,90.00
2022-09-04T12:49:48.161Z,89.60
2022-09-04T12:52:39.924Z,88.20
2022-09-04T12:55:35.927Z,86.80
2022-09-04T12:58:33.740Z,86.00
2022-09-04T13:01:13.704Z,85.60
2022-09-04T13:04:01.212Z,85.50
2022-09-04T13:06:50.392Z,84.80
2022-09-04T13:09:53.436Z,82.80
2022-09-04T13:12:48.565Z,82.70
2022-09-04T13:15:49.964Z,82.10
2022-09-04T13:18:22.506Z,80.50
2022-09-04T13:21:16.976Z,79.00
2022-09-04T13:24:12.267Z,77.30
2022-09-04T13:26:48.315Z,74.90
2022-09-04T13:29:36.104Z,73.50
2022-09-04T13:32:30.744Z,74.00
2022-09-04T13:35:25.415Z,73.10
2022-09-04T13:38:18.769Z,73.00
2022-09-04T13:40:46.001Z,72.70
2022-09-04T13:43:31.347Z,72.80
2022-09-04T13:46:04.535Z,73.10
2022-09-04T13:49:05.343Z,73.10
2022-09-04T13:52:24.301Z,73.40
2022-09-04T13:55:18.134Z,73.10
2022-09-04T13:57:59.909Z,72.50
2022-09-04T14:00:30.376Z,72.70
2022-09-04T14:03:06.931Z,72.40
2022-09-04T14:05:37.501Z,69.80
2022-09-04T14:08:12.771Z,66.70
2022-09-04T14:10:48.839Z,65.30
2022-09-04T14:13:23.293Z,63.30
2022-09-04T14:16:06.650Z,61.50
2022-09-04T14:18:52.763Z,59.70
2022-09-04T14:21:25.802Z,61.10
2022-09-04T14:24:03.306Z,60.80
2022-09-04T14:26:49.077Z,60.90
2022-09-04T14:29:54.296Z,60.50
2022-09-04T14:32:42.561Z,58.80
2022-09-04T14:35:30.971Z,58.70
2022-09-04T14:38:24.282Z,58.40
2022-09-04T14:41:16.099Z,57.20
2022-09-04T14:44:14.329Z,56.60
2022-09-04T14:47:02.863Z,55.70
2022-09-04T14:49:31.921Z,54.70
2022-09-04T14:52:14.965Z,53.30
2022-09-04T14:54:46.566Z,51.10
2022-09-04T14:57:25.062Z,49.70
2022-09-04T15:00:24.685Z,48.50
2022-09-04T15:03:35.445Z,48.20
2022-09-04T15:06:16.341Z,46.80
2022-09-04T15:08:45.322Z,49.20
2022-09-04T15:11:31.983Z,49.40
2022-09-04T15:14:28.432Z,48.70
2022-09-04T15:17:00.798Z,48.00
2022-09-04T15:19:51.982Z,48.10
2022-09-04T15:22:26.789Z,48.60
2022-09-04T15:25:00.999Z,49.70
2022-09-04T15:27:49.826Z,50.30
2022-09-04T15:30:27.889Z,50.60
2022-09-04T15:33:08.653Z,50.90
2022-09-04T15:35:37.931Z,51.80
2022-09-04T15:38:21.935Z,52.00
2022-09-04T15:41:16.679Z,52.50
2022-09-04T15:44:12.139Z,53.20
2022-09-04T15:46:47.287Z,54.20
2022-09-04T15:49:43.894Z,54.80
2022-09-04T15:52:38.602Z,54.50
2022-09-04T15:55:22.240Z,55.60
2022-09-04T15:58:11.502Z,56.30
2022-09-04T16:00:56.636Z,55.60
2022-09-04T16:03:36.554Z,56.30
2022-09-04T16:06:15.800Z,57.50
2022-09-04T16:09:07.075Z,58.40
2022-09-04T16:11:49.175Z,59.10
2022-09-04T16:14:25.684Z,59.20
2022-09-04T16:17:00.052Z,59.50
2022-09-04T16:19:34.443Z,59.80
2022-09-04T16:22:28.180Z,60.60
2022-09-04T16:25:23.475Z,61.20
2022-09-04T16:28:04.781Z,61.30
2022-09-04T16:31:07.406Z,61.70
2022-09-04T16:33:45.481Z,61.70
2022-09-04T16:36:17.401Z,62.10
2022-09-04T16:39:14.450Z,62.30
2022-09-04T16:41:58.062Z,62.90
2022-09-04T16:44:38.619Z,63.50
2022-09-04T16:47:18.413Z,63.70
2022-09-04T16:50:01.452Z,64.40
2022-09-04T16:52:32.811Z,65.00
2022-09-04T16:55:11.495Z,65.50
2022-09-04T16:57:44.503Z,65.00
2022-09-04T17:00:14.933Z,65.00
2022-09-04T17:02:56.054Z,65.80
2022-09-04T17:05:42.120Z,64.90
2022-09-04T17:08:24.075Z,64.80
2022-09-04T17:11:09.183Z,64.90
2022-09-04T17:13:46.569Z,64.90
2022-09-04T17:16:31.103Z,65.30
2022-09-04T17:18:59.526Z,65.70
2022-09-04T17:28:57.232Z,65.90
2022-09-04T17:29:08.974Z,66.50
2022-09-04T17:29:10.109Z,66.10
2022-09-04T17:32:06.984Z,67.30
2022-09-04T17:40:35.864Z,68.30
2022-09-04T17:40:50.008Z,68.70
2022-09-04T17:41:38.174Z,68.90
2022-09-04T17:44:35.108Z,68.90
2022-09-04T17:47:27.326Z,69.10
2022-09-04T17:49:56.203Z,69.20
2022-09-04T17:52:30.220Z,69.60
2022-09-04T17:55:13.111Z,70.10
2022-09-04T17:58:10.179Z,70.10
2022-09-04T18:00:49.580Z,70.60
2022-09-04T18:03:29.837Z,70.80
2022-09-04T18:06:13.805Z,71.10
2022-09-04T18:08:59.095Z,71.40
2022-09-04T18:11:36.309Z,71.80
2022-09-04T18:14:14.627Z,72.40
2022-09-04T18:17:11.259Z,72.80
2022-09-04T18:19:48.793Z,73.20
2022-09-04T18:22:26.870Z,73.60
2022-09-04T18:25:15.901Z,73.70
2022-09-04T18:28:09.626Z,74.00
2022-09-04T18:37:12.631Z,74.30
2022-09-04T18:37:24.172Z,74.60
2022-09-04T18:37:43.887Z,75.00
2022-09-04T18:43:37.351Z,75.50
2022-09-04T18:48:51.023Z,75.80
2022-09-04T18:50:32.090Z,76.30
2022-09-04T18:50:45.238Z,76.10
2022-09-04T18:52:04.674Z,76.80
2022-09-04T18:54:44.337Z,77.10
2022-09-04T18:58:16.220Z,77.40
2022-09-04T19:01:00.727Z,77.70
2022-09-04T19:03:49.248Z,77.90
2022-09-04T19:06:38.141Z,78.10
2022-09-04T19:09:16.691Z,78.50
2022-09-04T19:11:55.408Z,79.00
2022-09-04T19:14:28.896Z,79.40
2022-09-04T19:17:21.057Z,79.40
2022-09-04T19:19:49.974Z,79.60
2022-09-04T19:22:41.525Z,79.70
2022-09-04T19:25:30.621Z,79.90
2022-09-04T19:28:22.001Z,80.20
2022-09-04T19:30:54.623Z,80.40
2022-09-04T19:33:47.823Z,80.50
2022-09-04T19:36:43.820Z,80.80
2022-09-04T19:43:12.962Z,81.00
2022-09-04T19:45:57.609Z,81.30
2022-09-04T19:46:26.056Z,81.50
2022-09-04T19:52:51.378Z,81.70
2022-09-04T19:53:36.107Z,82.00
2022-09-04T19:55:46.386Z,82.20
2022-09-04T19:58:32.986Z,83.10
2022-09-04T20:01:02.650Z,82.60
2022-09-04T20:03:36.018Z,82.70
2022-09-04T20:06:36.376Z,83.10
2022-09-04T20:09:33.164Z,83.30
2022-09-04T20:12:18.157Z,83.50
2022-09-04T20:15:00.329Z,83.60
2022-09-04T20:17:53.636Z,83.80
2022-09-04T20:20:28.683Z,84.10
2022-09-04T20:22:58.696Z,84.30
2022-09-04T20:25:55.917Z,85.20
2022-09-04T20:28:52.565Z,84.90
2022-09-04T20:31:36.578Z,85.20
2022-09-04T20:34:12.842Z,85.30
2022-09-04T20:36:48.879Z,85.50
2022-09-04T20:39:27.444Z,85.80
2022-09-04T20:42:07.910Z,86.00
2022-09-04T20:44:51.140Z,86.20
2022-09-04T20:52:40.654Z,86.50
2022-09-04T20:53:05.491Z,86.60
2022-09-04T20:53:43.148Z,87.00
2022-09-04T20:57:13.655Z,87.40
2022-09-04T21:03:13.597Z,87.60
2022-09-04T21:03:23.558Z,87.90
2022-09-04T21:06:07.002Z,88.50
2022-09-04T21:08:40.735Z,88.70
2022-09-04T21:11:40.499Z,89.60
2022-09-04T21:14:28.631Z,89.30
2022-09-04T21:17:34.175Z,89.60
2022-09-04T21:20:23.644Z,90.00
2022-09-04T21:23:23.503Z,90.20
2022-09-04T21:25:58.112Z,90.80
2022-09-04T21:29:03.178Z,90.60
2022-09-04T21:32:16.170Z,90.80
2022-09-04T21:35:13.120Z,91.00
2022-09-04T21:38:02.097Z,91.10
2022-09-04T21:40:56.931Z,91.30
2022-09-04T21:43:42.492Z,91.60
2022-09-04T21:46:29.100Z,91.90
2022-09-04T21:49:26.525Z,92.00
2022-09-04T21:52:09.711Z,92.20
2022-09-04T22:01:33.248Z,92.40
2022-09-04T22:02:27.917Z,92.50
2022-09-04T22:02:45.673Z,92.70
2022-09-04T22:04:04.986Z,92.90
2022-09-04T22:06:55.711Z,93.10
2022-09-04T22:13:28.700Z,93.30
2022-09-04T22:13:33.244Z,93.50
2022-09-04T22:15:59.942Z,93.60
2022-09-04T22:18:39.757Z,93.80
2022-09-04T22:21:44.812Z,94.00
2022-09-04T22:24:45.413Z,94.00
2022-09-04T22:27:45.542Z,94.10
2022-09-04T22:30:38.865Z,94.20
2022-09-04T22:33:32.501Z,94.30
2022-09-04T22:36:21.973Z,94.40
2022-09-04T22:39:36.609Z,94.50
2022-09-04T22:42:41.737Z,94.70
2022-09-04T22:45:30.689Z,94.80
2022-09-04T22:48:20.547Z,94.80
2022-09-04T22:51:06.084Z,95.00
2022-09-04T22:53:48.611Z,95.10
2022-09-04T22:56:44.944Z,95.10
2022-09-04T22:59:30.271Z,95.20
2022-09-04T23:02:14.048Z,95.30
2022-09-04T23:04:45.535Z,95.40
2022-09-04T23:12:05.059Z,95.50
2022-09-04T23:13:46.988Z,95.80
2022-09-04T23:13:56.569Z,95.70
2022-09-04T23:16:58.307Z,96.10
2022-09-04T23:24:21.245Z,96.00
2022-09-04T23:26:33.321Z,96.10
2022-09-04T23:26:59.098Z,96.20
2022-09-04T23:30:02.265Z,96.40
2022-09-04T23:32:56.909Z,96.50
2022-09-04T23:35:38.967Z,96.70
2022-09-04T23:38:24.917Z,96.70
2022-09-04T23:40:59.177Z,96.80
2022-09-04T23:43:45.361Z,96.90
2022-09-04T23:46:35.529Z,97.00
2022-09-04T23:49:44.948Z,97.10
2022-09-04T23:52:27.347Z,97.30
2022-09-04T23:55:06.747Z,97.50
2022-09-04T23:57:52.881Z,97.60
